Time;durP1;ratioP1;P1;durP2;ratioP2;P2;SDS_P1;SDS_P2;PMS_P1;PMS_P2;Temp;Humidity;BMP_temperature;BMP_pressure;BME280_temperature;BME280_humidity;BME280_pressure;Samples;Min_cycle;Max_cycle;Signal;HPM_P1;HPM_P2
2022/09/16 00:00:42;;;;;;;11.90;3.17;;;19.00;99.90;;;;;;5015465;28;20029;-58
2022/09/16 00:03:09;;;;;;;7.47;3.03;;;19.00;99.90;;;;;;5015373;28;20037;-58
2022/09/16 00:05:44;;;;;;;8.30;3.22;;;19.00;99.90;;;;;;5015513;28;20117;-58
2022/09/16 00:08:10;;;;;;;13.20;3.42;;;18.90;99.90;;;;;;5015648;28;20025;-58
2022/09/16 00:10:36;;;;;;;10.80;2.92;;;18.90;99.90;;;;;;5015416;28;20042;-58
2022/09/16 00:13:02;;;;;;;9.15;3.25;;;19.00;99.90;;;;;;5015227;28;20053;-58
2022/09/16 00:15:28;;;;;;;12.20;3.90;;;19.00;99.90;;;;;;5015438;28;20080;-58
2022/09/16 00:17:54;;;;;;;10.63;4.00;;;18.90;99.90;;;;;;5015211;28;20029;-58
2022/09/16 00:20:20;;;;;;;10.70;3.40;;;18.70;99.90;;;;;;5015062;28;20018;-58
2022/09/16 00:22:46;;;;;;;10.63;3.45;;;18.70;99.90;;;;;;5015185;28;20030;-58
2022/09/16 00:25:12;;;;;;;9.07;4.10;;;18.70;99.90;;;;;;5015217;28;20032;-58
2022/09/16 00:27:38;;;;;;;10.45;4.03;;;18.70;99.90;;;;;;5015181;28;20235;-58
2022/09/16 00:30:04;;;;;;;9.77;3.90;;;18.60;99.90;;;;;;5015091;28;20057;-58
2022/09/16 00:32:30;;;;;;;10.88;4.72;;;18.70;99.90;;;;;;5014892;28;20527;-58
2022/09/16 00:34:56;;;;;;;13.05;4.10;;;18.60;99.90;;;;;;5015107;28;20026;-58
2022/09/16 00:37:22;;;;;;;10.50;3.83;;;18.60;99.90;;;;;;5015029;28;20499;-58
2022/09/16 00:39:49;;;;;;;11.65;3.65;;;18.60;99.90;;;;;;5014904;28;20483;-58
2022/09/16 00:42:16;;;;;;;9.70;3.90;;;18.50;99.90;;;;;;5014933;28;20030;-58
2022/09/16 00:45:01;;;;;;;14.00;3.85;;;18.50;99.90;;;;;;5014997;28;20030;-58
2022/09/16 00:47:35;;;;;;;13.50;3.67;;;18.50;99.90;;;;;;5014998;28;20026;-58
2022/09/16 00:50:11;;;;;;;12.35;3.60;;;18.50;99.90;;;;;;5014774;28;20034;-58
2022/09/16 00:52:40;;;;;;;11.65;3.88;;;18.50;99.90;;;;;;5014651;28;20038;-58
2022/09/16 00:55:08;;;;;;;11.38;4.32;;;18.60;99.90;;;;;;5014814;28;20138;-58
2022/09/16 00:57:35;;;;;;;9.57;4.32;;;18.50;99.90;;;;;;5014781;28;20460;-58
2022/09/16 01:00:04;;;;;;;11.15;4.05;;;18.50;99.90;;;;;;5014632;28;20018;-58
2022/09/16 01:02:30;;;;;;;12.02;4.20;;;18.40;99.90;;;;;;5014694;28;20038;-58
2022/09/16 01:05:08;;;;;;;12.10;3.75;;;18.30;99.90;;;;;;5014860;28;20049;-58
2022/09/16 01:07:40;;;;;;;7.43;3.30;;;18.30;99.90;;;;;;5014079;28;20084;-58
2022/09/16 01:10:06;;;;;;;14.45;3.85;;;18.30;99.90;;;;;;5014518;28;20263;-58
2022/09/16 01:12:33;;;;;;;8.98;3.90;;;18.30;99.90;;;;;;5014741;28;20054;-58
2022/09/16 01:15:00;;;;;;;7.38;3.28;;;18.30;99.90;;;;;;5014664;28;20431;-58
2022/09/16 01:17:28;;;;;;;10.07;3.13;;;18.20;99.90;;;;;;5014587;28;20058;-58
2022/09/16 01:20:03;;;;;;;10.57;3.25;;;18.10;99.90;;;;;;5014900;28;20026;-58
2022/09/16 01:22:46;;;;;;;12.48;3.63;;;18.10;99.90;;;;;;5014450;28;20026;-58
2022/09/16 01:25:11;;;;;;;9.80;3.00;;;18.10;99.90;;;;;;5014686;28;20065;-58
2022/09/16 01:27:53;;;;;;;8.80;3.10;;;18.10;99.90;;;;;;5014689;28;20026;-58
2022/09/16 01:30:47;;;;;;;13.10;3.75;;;18.10;99.90;;;;;;5014473;28;20075;-58
2022/09/16 01:33:41;;;;;;;8.02;3.67;;;18.10;99.90;;;;;;5014547;28;20022;-58
2022/09/16 01:36:19;;;;;;;7.22;3.15;;;18.10;99.90;;;;;;5013249;28;20041;-58
2022/09/16 01:38:54;;;;;;;13.05;4.43;;;18.10;99.90;;;;;;5014448;28;20022;-58
2022/09/16 01:41:29;;;;;;;9.73;3.47;;;18.10;99.90;;;;;;5014492;28;20087;-58
2022/09/16 01:44:17;;;;;;;7.55;3.40;;;18.20;99.90;;;;;;5014733;28;20033;-58
2022/09/16 01:47:22;;;;;;;13.60;3.70;;;18.20;99.90;;;;;;5014706;28;20117;-58
2022/09/16 01:50:25;;;;;;;9.90;3.13;;;18.20;99.90;;;;;;5014407;28;20030;-58
2022/09/16 01:53:10;;;;;;;10.02;3.10;;;18.20;99.90;;;;;;5014205;28;20030;-58
2022/09/16 01:55:39;;;;;;;10.80;3.20;;;18.20;99.90;;;;;;5014229;28;20107;-58
2022/09/16 01:58:34;;;;;;;7.47;2.90;;;18.20;99.90;;;;;;5014268;28;20074;-58
2022/09/16 02:01:06;;;;;;;13.20;3.38;;;18.10;99.90;;;;;;5009401;28;20048;-58
2022/09/16 02:03:35;;;;;;;7.55;2.85;;;18.10;99.90;;;;;;5014196;28;20030;-58
2022/09/16 02:06:14;;;;;;;9.63;2.95;;;18.00;99.90;;;;;;5014138;28;20519;-58
2022/09/16 02:09:02;;;;;;;7.18;3.05;;;18.00;99.90;;;;;;5014268;28;20395;-58
2022/09/16 02:11:28;;;;;;;10.30;3.30;;;18.00;99.90;;;;;;5013970;28;20030;-58
2022/09/16 02:14:24;;;;;;;6.85;2.83;;;18.00;99.90;;;;;;5014150;28;20022;-58
2022/09/16 02:17:13;;;;;;;9.48;3.08;;;17.90;99.90;;;;;;5013725;28;20049;-58
2022/09/16 02:20:06;;;;;;;8.75;3.42;;;17.90;99.90;;;;;;5014101;28;20034;-58
2022/09/16 02:22:43;;;;;;;7.18;3.80;;;17.90;99.90;;;;;;5013049;28;20120;-58
2022/09/16 02:25:11;;;;;;;9.00;3.53;;;17.90;99.90;;;;;;4997794;28;20054;-58
2022/09/16 02:27:40;;;;;;;7.25;3.90;;;18.00;99.90;;;;;;4997809;28;20105;-58
2022/09/16 02:30:09;;;;;;;7.85;3.05;;;18.00;99.90;;;;;;4997767;28;20583;-58
2022/09/16 02:32:40;;;;;;;7.95;3.28;;;18.00;99.90;;;;;;4997595;28;20038;-58
2022/09/16 02:35:10;;;;;;;11.00;3.58;;;18.00;99.90;;;;;;4997623;28;20041;-58
2022/09/16 02:37:40;;;;;;;;;;;18.00;99.90;;;;;;5004526;28;20088;-58
2022/09/16 02:40:17;;;;;;;7.57;3.10;;;18.00;99.90;;;;;;5017223;28;19914;-58
2022/09/16 02:42:43;;;;;;;7.38;3.30;;;18.00;99.90;;;;;;5017164;28;20026;-58
2022/09/16 02:45:09;;;;;;;10.95;3.30;;;18.10;99.90;;;;;;5015900;28;20133;-58
2022/09/16 02:47:55;;;;;;;8.02;3.60;;;18.10;99.90;;;;;;5016990;28;20041;-58
2022/09/16 02:50:37;;;;;;;10.30;3.53;;;18.10;99.90;;;;;;5016774;28;20036;-58
2022/09/16 02:53:15;;;;;;;10.27;3.25;;;18.20;99.90;;;;;;5016992;28;20034;-58
2022/09/16 02:55:52;;;;;;;10.82;3.33;;;18.10;99.90;;;;;;5016890;28;20026;-58
2022/09/16 02:58:19;;;;;;;8.82;3.38;;;18.00;99.90;;;;;;5016786;28;20048;-58
2022/09/16 03:00:48;;;;;;;8.88;2.88;;;18.10;99.90;;;;;;5016896;28;20495;-58
2022/09/16 03:03:14;;;;;;;9.27;3.67;;;18.20;99.90;;;;;;5016956;28;20033;-58
2022/09/16 03:06:05;;;;;;;10.23;3.60;;;18.20;99.90;;;;;;5016658;28;20076;-58
2022/09/16 03:08:32;;;;;;;7.25;3.13;;;18.10;99.90;;;;;;5016569;28;20034;-58
2022/09/16 03:11:11;;;;;;;7.50;3.20;;;18.10;99.90;;;;;;5016603;28;20030;-58
2022/09/16 03:13:58;;;;;;;8.75;3.03;;;18.20;99.90;;;;;;5016431;28;20157;-58
2022/09/16 03:17:09;;;;;;;9.18;3.00;;;18.20;99.90;;;;;;5016736;28;20029;-58
2022/09/16 03:19:35;;;;;;;11.98;2.95;;;18.10;99.90;;;;;;4955619;29;20881;-58
2022/09/16 03:22:18;;;;;;;6.50;3.10;;;18.20;99.90;;;;;;4955534;29;20061;-58
2022/09/16 03:24:58;;;;;;;8.50;3.00;;;18.20;99.90;;;;;;4955683;29;20044;-58
2022/09/16 03:27:34;;;;;;;5.77;3.03;;;18.20;99.90;;;;;;4955566;29;20544;-58
2022/09/16 03:30:09;;;;;;;11.23;3.58;;;18.20;99.90;;;;;;4955387;29;20035;-58
2022/09/16 03:32:48;;;;;;;9.27;3.90;;;18.30;99.90;;;;;;4954895;29;20102;-58
2022/09/16 03:35:18;;;;;;;7.40;3.33;;;18.20;99.90;;;;;;4955630;29;20489;-58
2022/09/16 03:37:45;;;;;;;6.17;3.53;;;18.10;99.90;;;;;;4955137;29;20469;-58
2022/09/16 03:40:14;;;;;;;7.30;3.63;;;18.10;99.90;;;;;;4955240;29;20062;-57
2022/09/16 03:42:41;;;;;;;8.98;3.38;;;18.10;99.90;;;;;;4955172;29;20031;-57
2022/09/16 03:45:15;;;;;;;9.00;3.85;;;18.10;99.90;;;;;;4955277;29;20031;-58
2022/09/16 03:47:42;;;;;;;9.30;4.30;;;18.00;99.90;;;;;;4955276;29;20050;-58
2022/09/16 03:50:08;;;;;;;10.18;3.88;;;17.90;99.90;;;;;;4980254;28;20495;-58
2022/09/16 03:52:34;;;;;;;7.55;3.78;;;18.00;99.90;;;;;;5015485;28;20054;-58
2022/09/16 03:55:00;;;;;;;8.05;4.22;;;17.90;99.90;;;;;;5015709;28;20060;-58
2022/09/16 03:57:27;;;;;;;11.57;4.18;;;18.00;99.90;;;;;;5015649;28;20041;-57
2022/09/16 03:59:53;;;;;;;8.75;4.07;;;18.00;99.90;;;;;;5015592;28;20052;-58
2022/09/16 04:02:19;;;;;;;8.13;3.75;;;17.90;99.90;;;;;;5015481;28;20122;-57
2022/09/16 04:04:45;;;;;;;13.07;4.97;;;18.00;99.90;;;;;;5015546;28;20026;-58
2022/09/16 04:07:11;;;;;;;9.82;3.97;;;18.00;99.90;;;;;;5015516;28;20399;-58
2022/09/16 04:09:36;;;;;;;11.60;3.67;;;18.10;99.90;;;;;;5015525;28;20045;-58
2022/09/16 04:12:06;;;;;;;11.77;4.72;;;18.10;99.90;;;;;;5015352;28;20038;-58
2022/09/16 04:14:33;;;;;;;14.75;4.20;;;18.20;99.90;;;;;;5015344;28;20022;-58
2022/09/16 04:16:59;;;;;;;10.25;4.63;;;18.10;99.90;;;;;;5015452;28;20041;-58
2022/09/16 04:19:25;;;;;;;7.38;3.67;;;18.20;99.90;;;;;;5015217;28;20033;-58
2022/09/16 04:21:51;;;;;;;7.40;3.88;;;18.10;99.90;;;;;;5015036;28;20092;-58
2022/09/16 04:24:17;;;;;;;9.65;3.97;;;18.10;99.90;;;;;;5015230;28;20384;-58
2022/09/16 04:26:44;;;;;;;10.45;4.55;;;18.10;99.90;;;;;;5015228;28;20029;-58
2022/09/16 04:29:10;;;;;;;9.20;4.22;;;18.10;99.90;;;;;;5015222;28;20543;-58
2022/09/16 04:31:36;;;;;;;7.95;3.40;;;18.00;99.90;;;;;;5014954;28;20030;-58
2022/09/16 04:34:03;;;;;;;10.88;4.18;;;17.90;99.90;;;;;;5015017;28;20377;-58
2022/09/16 04:36:29;;;;;;;7.78;3.67;;;17.90;99.90;;;;;;5015140;28;20097;-58
2022/09/16 04:38:54;;;;;;;11.73;3.97;;;17.90;99.90;;;;;;5015028;28;20520;-58
2022/09/16 04:41:22;;;;;;;6.20;3.47;;;18.00;99.90;;;;;;5014864;28;20030;-58
2022/09/16 04:43:57;;;;;;;13.20;3.53;;;18.10;99.90;;;;;;5014064;28;20034;-58
2022/09/16 04:46:27;;;;;;;12.45;4.57;;;18.00;99.90;;;;;;5014999;28;20036;-58
2022/09/16 04:48:54;;;;;;;12.02;4.40;;;18.00;99.90;;;;;;5014876;28;20041;-58
2022/09/16 04:51:22;;;;;;;9.63;3.97;;;17.90;99.90;;;;;;5014596;28;20050;-58
2022/09/16 04:53:49;;;;;;;8.43;3.35;;;18.10;99.90;;;;;;5014677;28;20041;-58
2022/09/16 04:56:18;;;;;;;8.75;3.72;;;18.10;99.90;;;;;;5014414;28;20486;-58
2022/09/16 04:58:50;;;;;;;7.35;3.15;;;18.20;99.90;;;;;;5014797;28;20022;-58
2022/09/16 05:01:19;;;;;;;14.00;3.60;;;18.20;99.90;;;;;;5014668;28;20033;-58
2022/09/16 05:03:47;;;;;;;12.55;3.70;;;18.10;99.90;;;;;;5014702;28;20093;-58
2022/09/16 05:06:22;;;;;;;9.30;3.40;;;18.10;99.90;;;;;;5014616;28;20029;-58
2022/09/16 05:08:49;;;;;;;13.40;4.15;;;18.10;99.90;;;;;;5014258;28;20030;-58
2022/09/16 05:11:18;;;;;;;13.35;4.43;;;18.20;99.90;;;;;;5014531;28;20026;-58
2022/09/16 05:13:44;;;;;;;4.85;3.67;;;18.30;99.90;;;;;;5014492;28;20038;-58
2022/09/16 05:16:13;;;;;;;8.15;3.65;;;18.30;99.90;;;;;;5014543;28;20026;-58
2022/09/16 05:18:41;;;;;;;8.38;3.60;;;18.30;99.90;;;;;;5014492;28;20087;-58
2022/09/16 05:21:10;;;;;;;8.85;3.70;;;18.30;99.90;;;;;;5014347;28;20109;-58
2022/09/16 05:23:36;;;;;;;8.23;3.90;;;18.30;99.90;;;;;;5014389;28;20037;-58
2022/09/16 05:26:06;;;;;;;6.68;3.55;;;18.30;99.90;;;;;;5012517;28;20044;-58
2022/09/16 05:28:33;;;;;;;8.85;4.90;;;18.40;99.90;;;;;;5014412;28;20022;-58
2022/09/16 05:31:15;;;;;;;8.98;4.05;;;18.40;99.90;;;;;;5013397;28;20407;-57
2022/09/16 05:33:43;;;;;;;14.18;4.10;;;18.40;99.90;;;;;;5013958;28;20053;-57
2022/09/16 05:36:12;;;;;;;7.93;3.80;;;18.40;99.90;;;;;;5014293;28;20032;-57
2022/09/16 05:38:38;;;;;;;8.90;4.00;;;18.40;99.90;;;;;;5013883;28;20113;-57
2022/09/16 05:41:05;;;;;;;13.73;4.80;;;18.40;99.90;;;;;;5014223;28;20033;-57
2022/09/16 05:43:32;;;;;;;6.95;3.83;;;18.40;99.90;;;;;;5014102;28;20058;-57
2022/09/16 05:45:58;;;;;;;8.32;4.00;;;18.50;99.90;;;;;;5014371;28;20030;-57
2022/09/16 05:48:24;;;;;;;6.75;3.33;;;18.40;99.90;;;;;;5011595;28;20587;-57
2022/09/16 05:51:02;;;;;;;7.53;4.40;;;18.50;99.90;;;;;;5013004;28;20080;-58
2022/09/16 05:53:30;;;;;;;7.30;4.50;;;18.50;99.90;;;;;;5013901;28;20121;-57
2022/09/16 05:55:57;;;;;;;8.75;4.35;;;18.60;99.90;;;;;;5017674;28;20033;-57
2022/09/16 05:58:24;;;;;;;13.55;5.30;;;18.60;99.90;;;;;;5016705;28;20037;-57
2022/09/16 06:00:50;;;;;;;13.82;4.97;;;18.50;99.90;;;;;;5017571;28;20398;-57
2022/09/16 06:03:17;;;;;;;15.73;5.85;;;18.50;99.90;;;;;;5017351;28;20025;-57
2022/09/16 06:05:43;;;;;;;11.35;4.82;;;18.50;99.90;;;;;;5017724;28;20495;-57
2022/09/16 06:08:09;;;;;;;15.10;5.25;;;18.50;99.90;;;;;;5017471;28;20044;-57
2022/09/16 06:10:41;;;;;;;9.05;5.30;;;18.60;99.90;;;;;;5017099;28;20450;-57
2022/09/16 06:13:07;;;;;;;9.45;4.63;;;18.60;99.90;;;;;;5017119;28;20030;-57
2022/09/16 06:15:36;;;;;;;14.48;5.60;;;18.50;99.90;;;;;;5017540;28;20021;-57
2022/09/16 06:18:02;;;;;;;9.48;5.40;;;18.70;99.90;;;;;;5017172;28;20490;-57
2022/09/16 06:20:28;;;;;;;12.38;5.90;;;18.70;99.90;;;;;;5017182;28;20046;-57
2022/09/16 06:22:54;;;;;;;7.18;4.47;;;18.70;99.90;;;;;;5017226;28;20451;-57
2022/09/16 06:25:20;;;;;;;12.60;5.35;;;18.60;99.90;;;;;;5016889;28;20458;-57
2022/09/16 06:27:46;;;;;;;11.18;4.30;;;18.50;99.90;;;;;;5016919;28;20089;-57
2022/09/16 06:30:12;;;;;;;12.52;4.82;;;18.60;99.90;;;;;;5016884;28;20076;-57
2022/09/16 06:32:37;;;;;;;9.68;4.40;;;18.70;99.90;;;;;;5016551;28;20053;-57
2022/09/16 06:35:04;;;;;;;16.60;5.95;;;18.90;99.90;;;;;;5016624;28;20034;-57
2022/09/16 06:37:30;;;;;;;13.70;5.20;;;18.90;99.90;;;;;;5016969;28;20219;-57
2022/09/16 06:39:55;;;;;;;19.92;5.72;;;19.00;99.90;;;;;;5017059;28;20685;-57
2022/09/16 06:42:21;;;;;;;15.18;4.68;;;19.00;99.90;;;;;;5017061;28;20037;-57
2022/09/16 06:44:48;;;;;;;17.45;4.80;;;19.10;99.90;;;;;;5016733;28;20033;-57
2022/09/16 06:47:14;;;;;;;11.88;4.50;;;19.20;99.90;;;;;;5016717;28;20116;-57
2022/09/16 06:49:40;;;;;;;18.85;6.05;;;19.20;99.90;;;;;;5016473;28;20049;-57
2022/09/16 06:52:08;;;;;;;18.63;5.13;;;19.30;99.90;;;;;;5016669;28;20468;-57
2022/09/16 06:54:34;;;;;;;20.00;6.50;;;19.50;99.90;;;;;;5016440;28;20467;-57
2022/09/16 06:57:00;;;;;;;16.40;6.15;;;19.70;99.90;;;;;;5016547;28;20026;-57
2022/09/16 06:59:26;;;;;;;24.30;7.72;;;19.80;99.90;;;;;;5016856;28;20029;-57
2022/09/16 07:01:52;;;;;;;19.73;7.95;;;20.00;99.90;;;;;;5017158;28;20026;-57
2022/09/16 07:04:18;;;;;;;22.52;9.45;;;20.00;99.90;;;;;;5017418;28;20145;-57
2022/09/16 07:06:45;;;;;;;20.30;8.98;;;20.20;99.90;;;;;;5016515;28;20361;-57
2022/09/16 07:09:11;;;;;;;22.52;9.02;;;20.40;99.90;;;;;;5015821;28;20030;-57
2022/09/16 07:11:36;;;;;;;23.83;11.55;;;20.70;99.90;;;;;;5016699;28;20538;-57
2022/09/16 07:14:03;;;;;;;21.15;12.68;;;20.90;99.90;;;;;;5016462;28;20030;-57
2022/09/16 07:16:29;;;;;;;20.35;9.80;;;21.00;99.90;;;;;;5016239;28;20483;-57
2022/09/16 07:18:57;;;;;;;18.42;9.43;;;21.30;99.90;;;;;;5016574;28;20026;-57
2022/09/16 07:21:27;;;;;;;20.23;6.78;;;21.40;99.90;;;;;;5016672;28;20029;-57
2022/09/16 07:23:58;;;;;;;15.60;7.53;;;21.40;99.90;;;;;;5016833;28;20037;-57
2022/09/16 07:26:26;;;;;;;17.65;8.25;;;21.40;99.90;;;;;;5016724;28;20029;-57
2022/09/16 07:28:53;;;;;;;12.68;6.55;;;21.40;99.90;;;;;;5016788;28;20757;-58
2022/09/16 07:31:25;;;;;;;9.73;5.95;;;21.50;99.90;;;;;;5016479;28;20041;-58
2022/09/16 07:33:54;;;;;;;11.98;5.35;;;21.30;99.90;;;;;;5015870;28;20048;-58
2022/09/16 07:36:23;;;;;;;11.73;5.68;;;21.40;99.90;;;;;;5015900;28;20033;-58
2022/09/16 07:38:50;;;;;;;14.52;5.80;;;21.30;99.90;;;;;;4997805;28;20042;-58
2022/09/16 07:41:19;;;;;;;15.40;6.10;;;21.10;99.90;;;;;;4996437;28;20023;-58
2022/09/16 07:43:46;;;;;;;16.58;7.53;;;20.90;99.90;;;;;;4995281;28;20026;-57
2022/09/16 07:46:15;;;;;;;12.60;5.30;;;20.90;99.90;;;;;;4995807;28;20419;-58
2022/09/16 07:48:42;;;;;;;19.15;6.85;;;21.00;99.90;;;;;;5015822;28;20029;-57
2022/09/16 07:51:14;;;;;;;14.70;4.85;;;21.10;99.90;;;;;;5015145;28;20088;-58
2022/09/16 07:53:41;;;;;;;17.73;6.28;;;21.20;99.90;;;;;;5015464;28;20475;-58
2022/09/16 07:56:16;;;;;;;10.63;5.22;;;21.20;99.90;;;;;;5015756;28;20026;-57
2022/09/16 07:58:44;;;;;;;12.52;5.22;;;21.30;99.90;;;;;;5015358;28;20064;-57
2022/09/16 08:01:11;;;;;;;13.50;5.30;;;21.40;99.90;;;;;;5015681;28;20026;-58
2022/09/16 08:03:41;;;;;;;11.18;5.72;;;21.30;99.90;;;;;;5014201;28;20117;-58
2022/09/16 08:06:15;;;;;;;11.70;5.38;;;21.40;99.90;;;;;;5015157;28;20029;-58
2022/09/16 08:08:42;;;;;;;13.18;5.75;;;21.50;99.90;;;;;;5015177;28;20475;-58
2022/09/16 08:11:09;;;;;;;12.13;4.93;;;21.70;99.90;;;;;;5015098;28;20060;-58
2022/09/16 08:13:37;;;;;;;15.20;6.15;;;21.70;99.90;;;;;;4996786;28;20042;-58
2022/09/16 08:16:17;;;;;;;14.90;6.80;;;21.80;99.90;;;;;;4995010;28;20030;-58
2022/09/16 08:18:45;;;;;;;8.18;5.05;;;21.80;99.90;;;;;;4995619;28;20030;-58
2022/09/16 08:21:23;;;;;;;14.82;7.30;;;21.80;99.90;;;;;;5006823;28;20028;-58
2022/09/16 08:23:49;;;;;;;8.50;5.38;;;21.70;99.90;;;;;;5015500;28;20026;-58
2022/09/16 08:26:17;;;;;;;22.00;10.50;;;21.70;99.90;;;;;;5015535;28;20416;-58
2022/09/16 08:28:45;;;;;;;10.05;6.38;;;21.70;99.90;;;;;;5015267;28;20033;-58
2022/09/16 08:31:11;;;;;;;13.73;6.78;;;21.80;99.90;;;;;;5014957;28;20029;-58
2022/09/16 08:33:41;;;;;;;13.18;7.90;;;21.90;99.90;;;;;;5014710;28;20040;-58
2022/09/16 08:36:16;;;;;;;11.98;7.35;;;22.10;99.90;;;;;;5015648;28;20054;-58
2022/09/16 08:38:43;;;;;;;9.00;6.45;;;22.10;99.90;;;;;;5015157;28;20105;-58
2022/09/16 08:41:38;;;;;;;12.60;7.35;;;22.20;99.90;;;;;;5014790;28;20065;-58
2022/09/16 08:44:38;;;;;;;14.05;8.35;;;22.40;99.90;;;;;;5014731;28;20275;-58
2022/09/16 08:47:24;;;;;;;12.75;6.75;;;22.50;99.90;;;;;;5013501;28;20068;-58
2022/09/16 08:49:51;;;;;;;9.45;6.00;;;22.90;99.90;;;;;;5014599;28;20137;-58
2022/09/16 08:52:36;;;;;;;8.02;5.97;;;23.30;99.90;;;;;;5014427;28;20038;-58
2022/09/16 08:55:15;;;;;;;11.50;6.00;;;23.90;99.90;;;;;;5014474;28;20026;-58
2022/09/16 08:57:56;;;;;;;12.60;6.97;;;24.10;99.90;;;;;;5014560;28;20033;-58
2022/09/16 09:00:22;;;;;;;10.55;6.72;;;24.70;99.90;;;;;;5014636;28;20033;-58
2022/09/16 09:02:51;;;;;;;9.98;6.53;;;25.00;99.90;;;;;;5014379;28;20121;-58
2022/09/16 09:05:39;;;;;;;10.32;5.63;;;24.40;99.90;;;;;;5014812;28;20038;-58
2022/09/16 09:08:28;;;;;;;10.40;5.80;;;24.10;98.60;;;;;;5014292;28;20440;-58
2022/09/16 09:11:24;;;;;;;12.40;7.35;;;24.60;96.70;;;;;;5014375;28;20036;-59
2022/09/16 09:13:53;;;;;;;15.82;9.02;;;25.20;99.90;;;;;;5014032;28;20113;-58
2022/09/16 09:16:41;;;;;;;18.05;9.63;;;25.40;93.50;;;;;;5014461;28;20034;-58
2022/09/16 09:19:07;;;;;;;9.82;4.65;;;25.50;93.20;;;;;;5014189;28;20022;-58
2022/09/16 09:21:56;;;;;;;7.60;4.47;;;24.50;93.10;;;;;;5014057;28;20483;-58
2022/09/16 09:24:40;;;;;;;14.02;4.55;;;24.70;94.10;;;;;;5014225;28;20545;-58
2022/09/16 09:27:28;;;;;;;16.02;5.53;;;25.00;95.70;;;;;;5014268;28;20064;-58
2022/09/16 09:30:20;;;;;;;17.30;5.60;;;25.50;93.60;;;;;;5016349;28;20030;-58
2022/09/16 09:33:05;;;;;;;13.43;4.80;;;25.20;95.00;;;;;;5014932;28;20045;-58
2022/09/16 09:36:16;;;;;;;18.45;6.63;;;25.20;92.30;;;;;;5018402;28;20022;-58
2022/09/16 09:38:51;;;;;;;27.40;7.97;;;25.60;95.00;;;;;;5016513;28;20038;-58
2022/09/16 09:41:28;;;;;;;12.65;4.97;;;25.30;92.30;;;;;;5018226;28;20029;-58
2022/09/16 09:44:27;;;;;;;8.95;4.70;;;25.40;91.90;;;;;;5016490;28;20042;-59
2022/09/16 09:46:57;;;;;;;11.77;4.47;;;25.60;92.60;;;;;;5017593;28;20101;-59
2022/09/16 09:49:32;;;;;;;14.10;4.23;;;25.70;92.20;;;;;;5018267;28;20322;-59
2022/09/16 09:52:13;;;;;;;13.50;4.90;;;25.60;91.70;;;;;;5017492;28;20642;-59
2022/09/16 09:54:43;;;;;;;17.38;5.93;;;25.30;93.40;;;;;;5017792;28;20030;-59
2022/09/16 09:57:15;;;;;;;13.40;5.22;;;25.20;93.10;;;;;;5017720;28;20022;-59
2022/09/16 10:00:20;;;;;;;11.95;5.20;;;24.80;91.80;;;;;;5017504;28;20061;-59
2022/09/16 10:02:47;;;;;;;11.40;4.47;;;24.70;93.60;;;;;;4995658;28;20535;-59
2022/09/16 10:05:26;;;;;;;17.85;6.10;;;24.50;95.20;;;;;;4995506;28;20109;-59
2022/09/16 10:08:13;;;;;;;11.30;4.90;;;24.60;95.50;;;;;;4995215;28;20191;-59
2022/09/16 10:10:50;;;;;;;8.45;4.65;;;24.40;96.10;;;;;;4994938;28;20038;-59
2022/09/16 10:13:16;;;;;;;16.63;7.10;;;24.10;96.00;;;;;;4994989;28;20038;-59
2022/09/16 10:15:43;;;;;;;17.65;7.30;;;24.10;96.10;;;;;;4994534;28;20026;-59
2022/09/16 10:18:24;;;;;;;14.15;6.43;;;23.90;96.60;;;;;;4994687;28;20038;-59
2022/09/16 10:21:04;;;;;;;32.05;7.28;;;24.00;97.30;;;;;;4994895;28;20045;-59
2022/09/16 10:23:30;;;;;;;7.82;4.57;;;23.80;98.90;;;;;;4995364;28;20038;-59
2022/09/16 10:26:04;;;;;;;11.38;4.43;;;23.60;95.50;;;;;;4993205;28;20044;-59
2022/09/16 10:28:30;;;;;;;20.13;7.57;;;23.10;98.20;;;;;;4994991;28;20105;-58
2022/09/16 10:30:57;;;;;;;20.92;6.55;;;23.00;99.60;;;;;;4995388;28;20038;-59
2022/09/16 10:33:32;;;;;;;13.32;6.40;;;23.10;99.90;;;;;;5004747;28;20085;-59
2022/09/16 10:36:02;;;;;;;22.23;7.07;;;22.90;99.90;;;;;;5016487;28;20080;-59
2022/09/16 10:38:56;;;;;;;18.27;7.03;;;23.10;99.80;;;;;;5014204;28;20373;-58
2022/09/16 10:41:26;;;;;;;10.65;5.55;;;23.20;99.90;;;;;;5014390;28;20507;-59
2022/09/16 10:43:55;;;;;;;;;;;23.40;99.90;;;;;;4997588;28;20506;-59
2022/09/16 10:46:21;;;;;;;21.27;8.10;;;23.40;99.90;;;;;;4997142;28;19964;-59
2022/09/16 10:48:50;;;;;;;14.52;7.45;;;23.50;99.00;;;;;;4996030;28;20041;-59
2022/09/16 10:51:23;;;;;;;17.48;7.47;;;23.60;99.90;;;;;;4996901;28;20077;-59
2022/09/16 10:53:57;;;;;;;14.48;7.57;;;23.60;99.90;;;;;;4997101;28;20034;-58
2022/09/16 10:56:28;;;;;;;14.00;5.20;;;23.90;99.50;;;;;;4997096;28;20034;-58
2022/09/16 10:59:11;;;;;;;14.35;7.90;;;23.90;98.00;;;;;;4996923;28;20030;-59
2022/09/16 11:02:01;;;;;;;19.52;7.63;;;23.90;97.20;;;;;;4996821;28;20038;-59
2022/09/16 11:04:38;;;;;;;10.15;6.05;;;24.50;97.70;;;;;;4996888;28;20373;-59
2022/09/16 11:07:23;;;;;;;9.52;5.03;;;25.40;95.30;;;;;;4996862;28;20498;-59
2022/09/16 11:10:15;;;;;;;15.25;5.57;;;25.70;93.20;;;;;;4996773;28;20030;-59
2022/09/16 11:12:56;;;;;;;15.48;7.35;;;26.10;93.00;;;;;;4996603;28;20034;-59
2022/09/16 11:15:41;;;;;;;18.77;7.15;;;25.80;91.30;;;;;;5011881;28;20034;-59
2022/09/16 11:18:24;;;;;;;7.88;4.50;;;25.60;91.60;;;;;;4996422;28;20042;-59
2022/09/16 11:20:55;;;;;;;12.40;5.13;;;26.10;88.50;;;;;;5004942;28;20034;-59
2022/09/16 11:23:36;;;;;;;11.82;5.90;;;26.30;89.30;;;;;;5014802;28;20434;-59
2022/09/16 11:26:10;;;;;;;14.75;4.82;;;26.90;87.20;;;;;;5015759;28;20093;-59
2022/09/16 11:29:13;;;;;;;9.48;4.50;;;27.50;85.50;;;;;;5015863;28;20369;-59
2022/09/16 11:31:42;;;;;;;22.17;5.95;;;27.80;79.20;;;;;;5014663;28;20099;-59
2022/09/16 11:34:41;;;;;;;16.42;5.43;;;27.70;78.10;;;;;;5030269;28;20038;-59
2022/09/16 11:37:22;;;;;;;21.05;6.63;;;27.40;76.90;;;;;;5015661;28;20400;-59
2022/09/16 11:40:10;;;;;;;20.55;6.28;;;27.50;78.20;;;;;;5006679;28;20022;-59
2022/09/16 11:42:41;;;;;;;13.13;4.25;;;27.70;78.80;;;;;;4996180;28;20675;-59
2022/09/16 11:45:55;;;;;;;10.25;4.47;;;27.80;78.20;;;;;;4996159;28;20396;-59
2022/09/16 11:48:40;;;;;;;13.82;5.50;;;27.60;74.40;;;;;;4974103;28;20082;-59
2022/09/16 11:51:37;;;;;;;12.15;5.13;;;28.40;73.70;;;;;;4974590;28;20046;-59
2022/09/16 11:54:27;;;;;;;15.77;5.35;;;28.40;73.50;;;;;;4974274;28;20709;-59
2022/09/16 11:56:58;;;;;;;;;;;28.80;71.10;;;;;;4974315;28;20059;-59
2022/09/16 11:59:42;;;;;;;11.60;4.85;;;29.20;68.90;;;;;;4974201;28;20417;-59
2022/09/16 12:02:26;;;;;;;10.85;4.40;;;28.70;68.00;;;;;;4974041;28;20055;-59
2022/09/16 12:05:23;;;;;;;8.77;4.22;;;28.20;68.10;;;;;;4973659;28;20504;-59
2022/09/16 12:08:11;;;;;;;8.10;3.88;;;27.20;71.10;;;;;;4957373;28;20046;-59
2022/09/16 12:10:48;;;;;;;16.65;3.88;;;27.80;70.90;;;;;;4973573;28;20069;-59
2022/09/16 12:13:35;;;;;;;7.32;3.70;;;28.20;71.60;;;;;;4973632;28;20043;-59
2022/09/16 12:16:14;;;;;;;5.22;3.13;;;28.20;75.10;;;;;;4973906;28;20027;-59
2022/09/16 12:18:58;;;;;;;9.65;3.53;;;28.70;73.00;;;;;;4981343;28;20038;-59
2022/09/16 12:21:36;;;;;;;12.48;4.07;;;28.30;64.90;;;;;;5008716;28;20068;-59
2022/09/16 12:24:18;;;;;;;11.43;3.88;;;27.70;69.50;;;;;;5015186;28;20033;-59
2022/09/16 12:26:50;;;;;;;6.55;2.75;;;27.50;69.10;;;;;;5013193;28;20037;-59
2022/09/16 12:29:32;;;;;;;11.95;3.20;;;27.90;71.40;;;;;;5014746;28;20495;-59
2022/09/16 12:32:05;;;;;;;4.97;3.28;;;27.60;69.50;;;;;;5014818;28;20022;-60
2022/09/16 12:35:01;;;;;;;7.47;3.80;;;28.20;68.50;;;;;;5014488;28;20131;-60
2022/09/16 12:37:48;;;;;;;9.88;4.38;;;29.10;70.80;;;;;;5011786;28;20038;-60
2022/09/16 12:40:26;;;;;;;4.93;2.95;;;28.70;66.70;;;;;;5009096;28;20070;-60
2022/09/16 12:43:16;;;;;;;8.85;3.97;;;28.70;69.30;;;;;;5014556;28;20041;-60
2022/09/16 12:46:27;;;;;;;7.20;3.38;;;28.20;67.60;;;;;;5013914;28;20487;-60
2022/09/16 12:49:13;;;;;;;9.00;3.58;;;28.40;69.70;;;;;;5003411;28;20045;-60
2022/09/16 12:52:06;;;;;;;14.40;4.60;;;28.50;70.50;;;;;;5004412;28;20038;-60
2022/09/16 12:54:52;;;;;;;9.13;4.10;;;28.10;70.90;;;;;;5005123;28;20392;-60
2022/09/16 12:57:44;;;;;;;18.35;5.30;;;27.80;72.50;;;;;;4994631;28;20030;-60
2022/09/16 13:00:38;;;;;;;13.30;4.30;;;27.30;73.20;;;;;;4993011;28;20038;-60
2022/09/16 13:03:15;;;;;;;5.80;3.60;;;27.20;76.90;;;;;;4997993;28;20407;-60
2022/09/16 13:05:46;;;;;;;7.55;3.55;;;27.00;76.50;;;;;;4999606;28;20057;-60
2022/09/16 13:08:33;;;;;;;22.00;6.15;;;27.00;75.20;;;;;;5010570;28;20053;-60
2022/09/16 13:11:03;;;;;;;7.85;4.18;;;27.00;76.00;;;;;;5014669;28;20440;-60
2022/09/16 13:13:38;;;;;;;;;;;26.70;78.00;;;;;;5014847;28;20116;-60
2022/09/16 13:16:07;;;;;;;8.38;4.65;;;26.60;79.20;;;;;;5014141;28;19909;-60